sensor_id;sensor_type;location;lat;lon;timestamp;P1;durP1;ratioP1;P2;durP2;ratioP2
52208;SDS011;38507;53.132;6.394;2023-04-25T00:00:25;23.30;;;3.83;;
52208;SDS011;38507;53.132;6.394;2023-04-25T00:02:51;20.85;;;3.58;;
52208;SDS011;38507;53.132;6.394;2023-04-25T00:05:16;17.30;;;3.88;;
52208;SDS011;38507;53.132;6.394;2023-04-25T00:07:42;19.27;;;3.42;;
52208;SDS011;38507;53.132;6.394;2023-04-25T00:10:08;23.55;;;4.35;;
52208;SDS011;38507;53.132;6.394;2023-04-25T00:12:36;22.95;;;3.60;;
52208;SDS011;38507;53.132;6.394;2023-04-25T00:15:02;28.45;;;4.75;;
52208;SDS011;38507;53.132;6.394;2023-04-25T00:17:28;23.20;;;4.53;;
52208;SDS011;38507;53.132;6.394;2023-04-25T00:19:54;16.38;;;3.60;;
52208;SDS011;38507;53.132;6.394;2023-04-25T00:22:20;29.20;;;4.55;;
52208;SDS011;38507;53.132;6.394;2023-04-25T00:24:46;28.60;;;4.22;;
52208;SDS011;38507;53.132;6.394;2023-04-25T00:27:12;29.13;;;4.82;;
52208;SDS011;38507;53.132;6.394;2023-04-25T00:29:39;22.15;;;3.92;;
52208;SDS011;38507;53.132;6.394;2023-04-25T00:32:04;22.52;;;3.53;;
52208;SDS011;38507;53.132;6.394;2023-04-25T00:34:30;18.25;;;3.13;;
52208;SDS011;38507;53.132;6.394;2023-04-25T00:36:55;24.20;;;3.35;;
52208;SDS011;38507;53.132;6.394;2023-04-25T00:39:22;23.85;;;3.17;;
52208;SDS011;38507;53.132;6.394;2023-04-25T00:41:47;15.63;;;3.67;;
52208;SDS011;38507;53.132;6.394;2023-04-25T00:44:13;20.50;;;3.97;;
52208;SDS011;38507;53.132;6.394;2023-04-25T00:46:42;20.20;;;3.65;;
52208;SDS011;38507;53.132;6.394;2023-04-25T00:49:07;19.02;;;3.13;;
52208;SDS011;38507;53.132;6.394;2023-04-25T00:51:33;18.25;;;3.83;;
52208;SDS011;38507;53.132;6.394;2023-04-25T00:54:00;21.25;;;3.15;;
52208;SDS011;38507;53.132;6.394;2023-04-25T00:56:26;24.92;;;3.45;;
52208;SDS011;38507;53.132;6.394;2023-04-25T00:58:55;19.73;;;3.00;;
52208;SDS011;38507;53.132;6.394;2023-04-25T01:01:21;19.80;;;2.92;;
52208;SDS011;38507;53.132;6.394;2023-04-25T01:03:47;20.70;;;2.65;;
52208;SDS011;38507;53.132;6.394;2023-04-25T01:06:16;21.08;;;2.90;;
52208;SDS011;38507;53.132;6.394;2023-04-25T01:08:41;22.02;;;3.42;;
52208;SDS011;38507;53.132;6.394;2023-04-25T01:11:07;16.80;;;3.22;;
52208;SDS011;38507;53.132;6.394;2023-04-25T01:13:33;18.02;;;3.22;;
52208;SDS011;38507;53.132;6.394;2023-04-25T01:15:59;20.52;;;3.55;;
52208;SDS011;38507;53.132;6.394;2023-04-25T01:18:26;15.32;;;2.65;;
52208;SDS011;38507;53.132;6.394;2023-04-25T01:20:52;15.85;;;2.63;;
52208;SDS011;38507;53.132;6.394;2023-04-25T01:23:19;19.15;;;2.80;;
52208;SDS011;38507;53.132;6.394;2023-04-25T01:25:45;19.45;;;2.78;;
52208;SDS011;38507;53.132;6.394;2023-04-25T01:28:12;24.80;;;2.88;;
52208;SDS011;38507;53.132;6.394;2023-04-25T01:30:38;20.13;;;2.35;;
52208;SDS011;38507;53.132;6.394;2023-04-25T01:33:04;28.45;;;3.38;;
52208;SDS011;38507;53.132;6.394;2023-04-25T01:35:30;18.23;;;3.28;;
52208;SDS011;38507;53.132;6.394;2023-04-25T01:37:56;14.93;;;2.42;;
52208;SDS011;38507;53.132;6.394;2023-04-25T01:40:23;23.52;;;2.88;;
52208;SDS011;38507;53.132;6.394;2023-04-25T01:42:49;14.05;;;3.22;;
52208;SDS011;38507;53.132;6.394;2023-04-25T01:45:15;22.13;;;3.03;;
52208;SDS011;38507;53.132;6.394;2023-04-25T01:47:42;18.95;;;3.20;;
52208;SDS011;38507;53.132;6.394;2023-04-25T01:50:08;20.27;;;2.63;;
52208;SDS011;38507;53.132;6.394;2023-04-25T01:52:36;11.52;;;2.65;;
52208;SDS011;38507;53.132;6.394;2023-04-25T01:55:02;19.58;;;2.58;;
52208;SDS011;38507;53.132;6.394;2023-04-25T01:57:27;15.60;;;2.40;;
52208;SDS011;38507;53.132;6.394;2023-04-25T01:59:55;19.67;;;2.65;;
52208;SDS011;38507;53.132;6.394;2023-04-25T02:02:24;15.85;;;2.80;;
52208;SDS011;38507;53.132;6.394;2023-04-25T02:04:51;19.08;;;2.47;;
52208;SDS011;38507;53.132;6.394;2023-04-25T02:07:17;16.42;;;2.70;;
52208;SDS011;38507;53.132;6.394;2023-04-25T02:09:42;19.98;;;3.45;;
52208;SDS011;38507;53.132;6.394;2023-04-25T02:12:09;20.30;;;3.33;;
52208;SDS011;38507;53.132;6.394;2023-04-25T02:14:35;16.90;;;2.25;;
52208;SDS011;38507;53.132;6.394;2023-04-25T02:17:01;21.95;;;2.75;;
52208;SDS011;38507;53.132;6.394;2023-04-25T02:19:27;15.70;;;3.03;;
52208;SDS011;38507;53.132;6.394;2023-04-25T02:21:52;18.92;;;3.00;;
52208;SDS011;38507;53.132;6.394;2023-04-25T02:24:18;16.98;;;2.88;;
52208;SDS011;38507;53.132;6.394;2023-04-25T02:26:44;22.85;;;2.88;;
52208;SDS011;38507;53.132;6.394;2023-04-25T02:29:11;18.77;;;3.15;;
52208;SDS011;38507;53.132;6.394;2023-04-25T02:31:38;16.70;;;2.53;;
52208;SDS011;38507;53.132;6.394;2023-04-25T02:34:03;16.17;;;2.25;;
52208;SDS011;38507;53.132;6.394;2023-04-25T02:36:29;14.85;;;2.35;;
52208;SDS011;38507;53.132;6.394;2023-04-25T02:38:57;16.17;;;2.72;;
52208;SDS011;38507;53.132;6.394;2023-04-25T02:41:22;16.10;;;2.35;;
52208;SDS011;38507;53.132;6.394;2023-04-25T02:43:48;22.38;;;3.05;;
52208;SDS011;38507;53.132;6.394;2023-04-25T02:46:14;20.27;;;3.05;;
52208;SDS011;38507;53.132;6.394;2023-04-25T02:48:39;16.02;;;2.75;;
52208;SDS011;38507;53.132;6.394;2023-04-25T02:51:05;16.02;;;2.22;;
52208;SDS011;38507;53.132;6.394;2023-04-25T02:53:31;20.23;;;4.45;;
52208;SDS011;38507;53.132;6.394;2023-04-25T02:55:56;18.52;;;2.95;;
52208;SDS011;38507;53.132;6.394;2023-04-25T02:58:24;16.55;;;2.53;;
52208;SDS011;38507;53.132;6.394;2023-04-25T03:00:50;20.40;;;2.20;;
52208;SDS011;38507;53.132;6.394;2023-04-25T03:03:15;11.10;;;2.15;;
52208;SDS011;38507;53.132;6.394;2023-04-25T03:05:48;15.52;;;2.45;;
52208;SDS011;38507;53.132;6.394;2023-04-25T03:08:15;23.83;;;2.92;;
52208;SDS011;38507;53.132;6.394;2023-04-25T03:10:41;15.27;;;2.78;;
52208;SDS011;38507;53.132;6.394;2023-04-25T03:13:07;13.95;;;1.83;;
52208;SDS011;38507;53.132;6.394;2023-04-25T03:15:32;12.80;;;2.55;;
52208;SDS011;38507;53.132;6.394;2023-04-25T03:17:58;10.73;;;1.80;;
52208;SDS011;38507;53.132;6.394;2023-04-25T03:20:24;10.85;;;1.80;;
52208;SDS011;38507;53.132;6.394;2023-04-25T03:22:49;10.25;;;1.90;;
52208;SDS011;38507;53.132;6.394;2023-04-25T03:25:15;12.27;;;2.08;;
52208;SDS011;38507;53.132;6.394;2023-04-25T03:27:41;8.00;;;1.73;;
52208;SDS011;38507;53.132;6.394;2023-04-25T03:30:06;11.82;;;1.70;;
52208;SDS011;38507;53.132;6.394;2023-04-25T03:32:33;11.20;;;2.00;;
52208;SDS011;38507;53.132;6.394;2023-04-25T03:35:00;11.35;;;2.10;;
52208;SDS011;38507;53.132;6.394;2023-04-25T03:37:25;9.30;;;1.95;;
52208;SDS011;38507;53.132;6.394;2023-04-25T03:39:51;10.95;;;1.95;;
52208;SDS011;38507;53.132;6.394;2023-04-25T03:42:16;12.48;;;2.08;;
52208;SDS011;38507;53.132;6.394;2023-04-25T03:44:42;14.32;;;1.90;;
52208;SDS011;38507;53.132;6.394;2023-04-25T03:47:08;9.63;;;1.88;;
52208;SDS011;38507;53.132;6.394;2023-04-25T03:49:34;9.10;;;1.77;;
52208;SDS011;38507;53.132;6.394;2023-04-25T03:52:01;12.82;;;2.05;;
52208;SDS011;38507;53.132;6.394;2023-04-25T03:54:27;13.95;;;1.88;;
52208;SDS011;38507;53.132;6.394;2023-04-25T03:56:52;11.38;;;1.45;;
52208;SDS011;38507;53.132;6.394;2023-04-25T03:59:18;10.85;;;1.52;;
52208;SDS011;38507;53.132;6.394;2023-04-25T04:01:44;10.63;;;1.77;;
52208;SDS011;38507;53.132;6.394;2023-04-25T04:04:09;16.00;;;2.42;;
52208;SDS011;38507;53.132;6.394;2023-04-25T04:06:35;12.25;;;2.03;;
52208;SDS011;38507;53.132;6.394;2023-04-25T04:09:01;12.10;;;2.22;;
52208;SDS011;38507;53.132;6.394;2023-04-25T04:11:27;11.30;;;2.60;;
52208;SDS011;38507;53.132;6.394;2023-04-25T04:13:53;12.15;;;1.95;;
52208;SDS011;38507;53.132;6.394;2023-04-25T04:16:18;13.65;;;1.92;;
52208;SDS011;38507;53.132;6.394;2023-04-25T04:18:45;14.48;;;2.40;;
52208;SDS011;38507;53.132;6.394;2023-04-25T04:21:11;9.82;;;1.70;;
52208;SDS011;38507;53.132;6.394;2023-04-25T04:23:36;18.77;;;2.60;;
52208;SDS011;38507;53.132;6.394;2023-04-25T04:26:02;11.10;;;1.90;;
52208;SDS011;38507;53.132;6.394;2023-04-25T04:28:28;14.48;;;1.55;;
52208;SDS011;38507;53.132;6.394;2023-04-25T04:30:54;15.02;;;1.83;;
52208;SDS011;38507;53.132;6.394;2023-04-25T04:33:20;9.38;;;1.73;;
52208;SDS011;38507;53.132;6.394;2023-04-25T04:35:46;18.00;;;2.30;;
52208;SDS011;38507;53.132;6.394;2023-04-25T04:38:12;12.00;;;1.83;;
52208;SDS011;38507;53.132;6.394;2023-04-25T04:40:40;10.30;;;1.70;;
52208;SDS011;38507;53.132;6.394;2023-04-25T04:43:09;16.67;;;2.28;;
52208;SDS011;38507;53.132;6.394;2023-04-25T04:45:35;14.85;;;2.15;;
52208;SDS011;38507;53.132;6.394;2023-04-25T04:48:01;10.20;;;1.83;;
52208;SDS011;38507;53.132;6.394;2023-04-25T04:50:27;14.02;;;2.00;;
52208;SDS011;38507;53.132;6.394;2023-04-25T04:52:53;11.32;;;2.00;;
52208;SDS011;38507;53.132;6.394;2023-04-25T04:55:20;11.55;;;2.17;;
52208;SDS011;38507;53.132;6.394;2023-04-25T04:57:46;13.18;;;2.25;;
52208;SDS011;38507;53.132;6.394;2023-04-25T05:00:11;17.25;;;2.40;;
52208;SDS011;38507;53.132;6.394;2023-04-25T05:02:37;9.32;;;1.80;;
52208;SDS011;38507;53.132;6.394;2023-04-25T05:05:04;17.25;;;1.88;;
52208;SDS011;38507;53.132;6.394;2023-04-25T05:07:30;14.48;;;2.28;;
52208;SDS011;38507;53.132;6.394;2023-04-25T05:09:55;14.75;;;2.30;;
52208;SDS011;38507;53.132;6.394;2023-04-25T05:12:21;13.50;;;2.28;;
52208;SDS011;38507;53.132;6.394;2023-04-25T05:14:47;12.85;;;2.33;;
52208;SDS011;38507;53.132;6.394;2023-04-25T05:17:12;12.45;;;2.20;;
52208;SDS011;38507;53.132;6.394;2023-04-25T05:19:38;16.33;;;2.20;;
52208;SDS011;38507;53.132;6.394;2023-04-25T05:22:04;17.15;;;2.65;;
52208;SDS011;38507;53.132;6.394;2023-04-25T05:24:30;14.45;;;1.90;;
52208;SDS011;38507;53.132;6.394;2023-04-25T05:26:56;18.98;;;2.63;;
52208;SDS011;38507;53.132;6.394;2023-04-25T05:29:21;13.85;;;2.33;;
52208;SDS011;38507;53.132;6.394;2023-04-25T05:31:47;15.00;;;2.20;;
52208;SDS011;38507;53.132;6.394;2023-04-25T05:34:13;11.35;;;1.88;;
52208;SDS011;38507;53.132;6.394;2023-04-25T05:36:39;13.88;;;2.10;;
52208;SDS011;38507;53.132;6.394;2023-04-25T05:39:04;17.45;;;2.20;;
52208;SDS011;38507;53.132;6.394;2023-04-25T05:41:31;14.57;;;2.17;;
52208;SDS011;38507;53.132;6.394;2023-04-25T05:43:57;13.90;;;1.73;;
52208;SDS011;38507;53.132;6.394;2023-04-25T05:46:24;17.98;;;2.90;;
52208;SDS011;38507;53.132;6.394;2023-04-25T05:48:50;15.98;;;2.03;;
52208;SDS011;38507;53.132;6.394;2023-04-25T05:51:16;11.95;;;2.03;;
52208;SDS011;38507;53.132;6.394;2023-04-25T05:53:43;8.45;;;2.03;;
52208;SDS011;38507;53.132;6.394;2023-04-25T05:56:09;14.88;;;2.00;;
52208;SDS011;38507;53.132;6.394;2023-04-25T05:58:35;14.60;;;2.65;;
52208;SDS011;38507;53.132;6.394;2023-04-25T06:01:01;16.33;;;2.08;;
52208;SDS011;38507;53.132;6.394;2023-04-25T06:03:27;11.38;;;2.00;;
52208;SDS011;38507;53.132;6.394;2023-04-25T06:05:53;13.82;;;2.70;;
52208;SDS011;38507;53.132;6.394;2023-04-25T06:08:19;19.75;;;2.15;;
52208;SDS011;38507;53.132;6.394;2023-04-25T06:10:44;11.50;;;1.75;;
52208;SDS011;38507;53.132;6.394;2023-04-25T06:13:10;6.70;;;1.50;;
52208;SDS011;38507;53.132;6.394;2023-04-25T06:15:36;14.32;;;2.40;;
52208;SDS011;38507;53.132;6.394;2023-04-25T06:18:01;10.95;;;1.75;;
52208;SDS011;38507;53.132;6.394;2023-04-25T06:20:27;13.30;;;1.85;;
52208;SDS011;38507;53.132;6.394;2023-04-25T06:22:53;17.77;;;2.22;;
52208;SDS011;38507;53.132;6.394;2023-04-25T06:25:18;13.80;;;1.42;;
52208;SDS011;38507;53.132;6.394;2023-04-25T06:27:45;9.88;;;1.80;;
52208;SDS011;38507;53.132;6.394;2023-04-25T06:30:11;13.93;;;2.05;;
52208;SDS011;38507;53.132;6.394;2023-04-25T06:32:37;15.27;;;2.50;;
52208;SDS011;38507;53.132;6.394;2023-04-25T06:35:03;12.18;;;1.58;;
52208;SDS011;38507;53.132;6.394;2023-04-25T06:37:30;11.60;;;1.73;;
52208;SDS011;38507;53.132;6.394;2023-04-25T06:39:56;10.57;;;1.42;;
52208;SDS011;38507;53.132;6.394;2023-04-25T06:42:21;11.20;;;1.58;;
52208;SDS011;38507;53.132;6.394;2023-04-25T06:44:47;8.60;;;1.45;;
52208;SDS011;38507;53.132;6.394;2023-04-25T06:47:13;4.68;;;1.10;;
52208;SDS011;38507;53.132;6.394;2023-04-25T06:49:38;7.30;;;1.30;;
52208;SDS011;38507;53.132;6.394;2023-04-25T06:52:04;4.65;;;1.10;;
52208;SDS011;38507;53.132;6.394;2023-04-25T06:54:30;11.95;;;1.60;;
52208;SDS011;38507;53.132;6.394;2023-04-25T06:56:56;8.10;;;1.77;;
52208;SDS011;38507;53.132;6.394;2023-04-25T06:59:22;5.40;;;1.20;;
52208;SDS011;38507;53.132;6.394;2023-04-25T07:01:47;12.02;;;1.67;;
52208;SDS011;38507;53.132;6.394;2023-04-25T07:04:13;7.85;;;1.27;;
52208;SDS011;38507;53.132;6.394;2023-04-25T07:06:38;9.68;;;1.52;;
52208;SDS011;38507;53.132;6.394;2023-04-25T07:09:10;11.45;;;1.67;;
52208;SDS011;38507;53.132;6.394;2023-04-25T07:11:37;9.27;;;1.50;;
52208;SDS011;38507;53.132;6.394;2023-04-25T07:14:02;12.80;;;1.90;;
52208;SDS011;38507;53.132;6.394;2023-04-25T07:16:28;7.00;;;1.10;;
52208;SDS011;38507;53.132;6.394;2023-04-25T07:18:54;13.43;;;1.80;;
52208;SDS011;38507;53.132;6.394;2023-04-25T07:21:20;9.35;;;1.65;;
52208;SDS011;38507;53.132;6.394;2023-04-25T07:23:46;15.30;;;1.40;;
52208;SDS011;38507;53.132;6.394;2023-04-25T07:26:11;8.07;;;1.30;;
52208;SDS011;38507;53.132;6.394;2023-04-25T07:28:37;9.40;;;1.13;;
52208;SDS011;38507;53.132;6.394;2023-04-25T07:31:03;11.57;;;1.50;;
52208;SDS011;38507;53.132;6.394;2023-04-25T07:33:29;12.07;;;1.80;;
52208;SDS011;38507;53.132;6.394;2023-04-25T07:35:54;8.65;;;1.40;;
52208;SDS011;38507;53.132;6.394;2023-04-25T07:38:21;10.27;;;1.55;;
52208;SDS011;38507;53.132;6.394;2023-04-25T07:40:47;11.93;;;1.33;;
52208;SDS011;38507;53.132;6.394;2023-04-25T07:43:13;13.95;;;1.48;;
52208;SDS011;38507;53.132;6.394;2023-04-25T07:45:45;9.90;;;0.98;;
52208;SDS011;38507;53.132;6.394;2023-04-25T07:48:11;4.15;;;0.95;;
52208;SDS011;38507;53.132;6.394;2023-04-25T07:50:41;5.13;;;0.80;;
52208;SDS011;38507;53.132;6.394;2023-04-25T07:53:07;9.52;;;0.98;;
52208;SDS011;38507;53.132;6.394;2023-04-25T07:55:32;6.10;;;1.20;;
52208;SDS011;38507;53.132;6.394;2023-04-25T07:57:58;8.05;;;0.90;;
52208;SDS011;38507;53.132;6.394;2023-04-25T08:00:23;8.40;;;1.30;;
52208;SDS011;38507;53.132;6.394;2023-04-25T08:02:49;10.30;;;1.13;;
52208;SDS011;38507;53.132;6.394;2023-04-25T08:05:16;9.13;;;1.10;;
52208;SDS011;38507;53.132;6.394;2023-04-25T08:07:42;8.63;;;1.77;;
52208;SDS011;38507;53.132;6.394;2023-04-25T08:10:08;10.75;;;1.20;;
52208;SDS011;38507;53.132;6.394;2023-04-25T08:12:34;10.57;;;1.40;;
52208;SDS011;38507;53.132;6.394;2023-04-25T08:15:00;7.15;;;1.40;;
52208;SDS011;38507;53.132;6.394;2023-04-25T08:17:26;11.20;;;1.70;;
52208;SDS011;38507;53.132;6.394;2023-04-25T08:19:51;7.60;;;1.08;;
52208;SDS011;38507;53.132;6.394;2023-04-25T08:22:17;6.57;;;1.17;;
52208;SDS011;38507;53.132;6.394;2023-04-25T08:24:43;4.13;;;0.90;;
52208;SDS011;38507;53.132;6.394;2023-04-25T08:27:08;4.53;;;0.93;;
52208;SDS011;38507;53.132;6.394;2023-04-25T08:29:34;2.90;;;0.90;;
52208;SDS011;38507;53.132;6.394;2023-04-25T08:32:03;6.07;;;0.80;;
52208;SDS011;38507;53.132;6.394;2023-04-25T08:34:29;7.47;;;0.93;;
52208;SDS011;38507;53.132;6.394;2023-04-25T08:36:55;4.05;;;0.70;;
52208;SDS011;38507;53.132;6.394;2023-04-25T08:39:20;4.28;;;0.73;;
52208;SDS011;38507;53.132;6.394;2023-04-25T08:41:46;7.00;;;1.67;;
52208;SDS011;38507;53.132;6.394;2023-04-25T08:44:12;6.45;;;1.15;;
52208;SDS011;38507;53.132;6.394;2023-04-25T08:46:38;4.65;;;0.70;;
52208;SDS011;38507;53.132;6.394;2023-04-25T08:49:07;5.28;;;0.77;;
52208;SDS011;38507;53.132;6.394;2023-04-25T08:51:38;2.60;;;0.50;;
52208;SDS011;38507;53.132;6.394;2023-04-25T08:54:12;7.63;;;0.80;;
52208;SDS011;38507;53.132;6.394;2023-04-25T08:56:40;4.97;;;0.80;;
52208;SDS011;38507;53.132;6.394;2023-04-25T08:59:09;5.63;;;1.00;;
52208;SDS011;38507;53.132;6.394;2023-04-25T09:01:35;7.43;;;0.98;;
52208;SDS011;38507;53.132;6.394;2023-04-25T09:04:01;2.42;;;0.60;;
52208;SDS011;38507;53.132;6.394;2023-04-25T09:06:28;4.38;;;0.82;;
52208;SDS011;38507;53.132;6.394;2023-04-25T09:09:01;5.80;;;1.02;;
52208;SDS011;38507;53.132;6.394;2023-04-25T09:11:31;3.50;;;0.80;;
52208;SDS011;38507;53.132;6.394;2023-04-25T09:19:31;13.80;;;1.30;;
52208;SDS011;38507;53.132;6.394;2023-04-25T09:22:00;5.88;;;0.80;;
52208;SDS011;38507;53.132;6.394;2023-04-25T09:24:31;8.45;;;1.30;;
52208;SDS011;38507;53.132;6.394;2023-04-25T09:26:57;12.77;;;1.35;;
52208;SDS011;38507;53.132;6.394;2023-04-25T09:29:32;7.05;;;1.05;;
52208;SDS011;38507;53.132;6.394;2023-04-25T09:32:14;7.97;;;1.48;;
52208;SDS011;38507;53.132;6.394;2023-04-25T09:34:53;10.75;;;1.50;;
52208;SDS011;38507;53.132;6.394;2023-04-25T09:37:23;10.93;;;2.22;;
52208;SDS011;38507;53.132;6.394;2023-04-25T09:39:53;10.75;;;1.55;;
52208;SDS011;38507;53.132;6.394;2023-04-25T09:42:24;10.52;;;1.90;;
52208;SDS011;38507;53.132;6.394;2023-04-25T09:44:56;8.80;;;1.52;;
52208;SDS011;38507;53.132;6.394;2023-04-25T09:47:23;9.43;;;1.63;;
52208;SDS011;38507;53.132;6.394;2023-04-25T09:49:50;10.13;;;1.50;;
52208;SDS011;38507;53.132;6.394;2023-04-25T09:52:17;11.05;;;1.58;;
52208;SDS011;38507;53.132;6.394;2023-04-25T09:54:45;9.00;;;1.50;;
52208;SDS011;38507;53.132;6.394;2023-04-25T09:57:13;7.72;;;2.17;;
52208;SDS011;38507;53.132;6.394;2023-04-25T09:59:48;6.50;;;1.27;;
52208;SDS011;38507;53.132;6.394;2023-04-25T10:02:16;7.70;;;1.27;;
52208;SDS011;38507;53.132;6.394;2023-04-25T10:04:47;6.25;;;1.23;;
52208;SDS011;38507;53.132;6.394;2023-04-25T10:07:13;12.05;;;2.22;;
52208;SDS011;38507;53.132;6.394;2023-04-25T10:09:40;10.90;;;1.50;;
52208;SDS011;38507;53.132;6.394;2023-04-25T10:12:07;8.70;;;1.27;;
52208;SDS011;38507;53.132;6.394;2023-04-25T10:14:33;9.13;;;1.23;;
52208;SDS011;38507;53.132;6.394;2023-04-25T10:17:00;11.48;;;1.50;;
52208;SDS011;38507;53.132;6.394;2023-04-25T10:19:26;8.32;;;1.48;;
52208;SDS011;38507;53.132;6.394;2023-04-25T10:24:30;11.07;;;1.92;;
52208;SDS011;38507;53.132;6.394;2023-04-25T10:26:57;12.00;;;1.45;;
52208;SDS011;38507;53.132;6.394;2023-04-25T10:29:24;10.10;;;1.48;;
52208;SDS011;38507;53.132;6.394;2023-04-25T10:31:50;8.70;;;1.48;;
52208;SDS011;38507;53.132;6.394;2023-04-25T10:34:17;7.18;;;1.30;;
52208;SDS011;38507;53.132;6.394;2023-04-25T10:36:43;7.28;;;1.58;;
52208;SDS011;38507;53.132;6.394;2023-04-25T10:39:20;8.75;;;1.20;;
52208;SDS011;38507;53.132;6.394;2023-04-25T10:41:52;10.40;;;1.65;;
52208;SDS011;38507;53.132;6.394;2023-04-25T10:44:18;8.73;;;1.27;;
52208;SDS011;38507;53.132;6.394;2023-04-25T10:46:45;5.97;;;1.20;;
52208;SDS011;38507;53.132;6.394;2023-04-25T10:49:28;8.32;;;1.58;;
52208;SDS011;38507;53.132;6.394;2023-04-25T10:54:43;9.75;;;1.60;;
52208;SDS011;38507;53.132;6.394;2023-04-25T11:02:41;10.10;;;1.60;;
52208;SDS011;38507;53.132;6.394;2023-04-25T11:11:58;7.28;;;1.60;;
52208;SDS011;38507;53.132;6.394;2023-04-25T11:14:25;6.40;;;1.63;;
52208;SDS011;38507;53.132;6.394;2023-04-25T11:16:55;7.05;;;1.50;;
52208;SDS011;38507;53.132;6.394;2023-04-25T11:19:22;10.90;;;1.73;;
52208;SDS011;38507;53.132;6.394;2023-04-25T11:21:48;12.10;;;1.50;;
52208;SDS011;38507;53.132;6.394;2023-04-25T11:24:14;13.43;;;1.60;;
52208;SDS011;38507;53.132;6.394;2023-04-25T11:26:41;10.68;;;1.95;;
52208;SDS011;38507;53.132;6.394;2023-04-25T11:29:07;9.05;;;1.70;;
52208;SDS011;38507;53.132;6.394;2023-04-25T11:31:33;8.38;;;1.20;;
52208;SDS011;38507;53.132;6.394;2023-04-25T11:33:59;7.80;;;0.88;;
52208;SDS011;38507;53.132;6.394;2023-04-25T11:36:25;6.90;;;1.30;;
52208;SDS011;38507;53.132;6.394;2023-04-25T11:38:51;7.03;;;1.25;;
52208;SDS011;38507;53.132;6.394;2023-04-25T11:41:18;7.32;;;1.05;;
52208;SDS011;38507;53.132;6.394;2023-04-25T11:43:45;7.28;;;1.35;;
52208;SDS011;38507;53.132;6.394;2023-04-25T11:46:11;5.97;;;1.10;;
52208;SDS011;38507;53.132;6.394;2023-04-25T11:48:38;10.50;;;1.35;;
52208;SDS011;38507;53.132;6.394;2023-04-25T11:51:07;5.68;;;1.20;;
52208;SDS011;38507;53.132;6.394;2023-04-25T11:53:33;9.45;;;1.33;;
52208;SDS011;38507;53.132;6.394;2023-04-25T11:55:59;5.28;;;1.40;;
52208;SDS011;38507;53.132;6.394;2023-04-25T11:58:25;5.85;;;1.33;;
52208;SDS011;38507;53.132;6.394;2023-04-25T12:00:51;8.68;;;1.20;;
52208;SDS011;38507;53.132;6.394;2023-04-25T12:03:18;13.25;;;1.48;;
52208;SDS011;38507;53.132;6.394;2023-04-25T12:05:44;6.82;;;1.25;;
52208;SDS011;38507;53.132;6.394;2023-04-25T12:08:14;8.70;;;1.13;;
52208;SDS011;38507;53.132;6.394;2023-04-25T12:10:42;8.65;;;1.40;;
52208;SDS011;38507;53.132;6.394;2023-04-25T12:13:18;6.43;;;1.30;;
52208;SDS011;38507;53.132;6.394;2023-04-25T12:15:47;5.65;;;1.00;;
52208;SDS011;38507;53.132;6.394;2023-04-25T12:18:13;9.27;;;1.38;;
52208;SDS011;38507;53.132;6.394;2023-04-25T12:20:39;6.65;;;0.85;;
52208;SDS011;38507;53.132;6.394;2023-04-25T12:23:07;6.07;;;1.20;;
52208;SDS011;38507;53.132;6.394;2023-04-25T12:28:09;9.43;;;1.38;;
52208;SDS011;38507;53.132;6.394;2023-04-25T12:33:30;13.25;;;1.50;;
52208;SDS011;38507;53.132;6.394;2023-04-25T12:36:01;7.03;;;1.10;;
52208;SDS011;38507;53.132;6.394;2023-04-25T12:38:38;11.10;;;1.50;;
52208;SDS011;38507;53.132;6.394;2023-04-25T12:41:05;8.68;;;1.15;;
52208;SDS011;38507;53.132;6.394;2023-04-25T12:43:32;13.35;;;1.30;;
52208;SDS011;38507;53.132;6.394;2023-04-25T12:45:57;9.23;;;1.30;;
52208;SDS011;38507;53.132;6.394;2023-04-25T12:48:23;7.75;;;1.70;;
52208;SDS011;38507;53.132;6.394;2023-04-25T12:50:50;10.50;;;1.60;;
52208;SDS011;38507;53.132;6.394;2023-04-25T12:53:17;5.38;;;1.08;;
52208;SDS011;38507;53.132;6.394;2023-04-25T12:55:43;9.02;;;1.20;;
52208;SDS011;38507;53.132;6.394;2023-04-25T12:58:13;9.23;;;1.30;;
52208;SDS011;38507;53.132;6.394;2023-04-25T13:00:39;9.07;;;1.30;;
52208;SDS011;38507;53.132;6.394;2023-04-25T13:03:04;6.35;;;0.93;;
52208;SDS011;38507;53.132;6.394;2023-04-25T13:05:30;6.38;;;1.08;;
52208;SDS011;38507;53.132;6.394;2023-04-25T13:07:56;4.65;;;1.00;;
52208;SDS011;38507;53.132;6.394;2023-04-25T13:10:22;4.93;;;0.90;;
52208;SDS011;38507;53.132;6.394;2023-04-25T13:12:48;7.30;;;1.02;;
52208;SDS011;38507;53.132;6.394;2023-04-25T13:15:13;12.13;;;1.35;;
52208;SDS011;38507;53.132;6.394;2023-04-25T13:17:40;9.50;;;1.42;;
52208;SDS011;38507;53.132;6.394;2023-04-25T13:20:07;8.57;;;1.17;;
52208;SDS011;38507;53.132;6.394;2023-04-25T13:22:43;12.32;;;1.75;;
52208;SDS011;38507;53.132;6.394;2023-04-25T13:25:10;14.13;;;2.25;;
52208;SDS011;38507;53.132;6.394;2023-04-25T13:27:36;10.80;;;1.75;;
52208;SDS011;38507;53.132;6.394;2023-04-25T13:30:03;8.27;;;1.73;;
52208;SDS011;38507;53.132;6.394;2023-04-25T13:32:35;9.50;;;1.80;;
52208;SDS011;38507;53.132;6.394;2023-04-25T13:35:03;10.00;;;1.83;;
52208;SDS011;38507;53.132;6.394;2023-04-25T13:37:30;11.52;;;1.60;;
52208;SDS011;38507;53.132;6.394;2023-04-25T13:39:58;9.43;;;1.55;;
52208;SDS011;38507;53.132;6.394;2023-04-25T13:42:29;10.63;;;1.33;;
52208;SDS011;38507;53.132;6.394;2023-04-25T13:44:56;8.23;;;1.20;;
52208;SDS011;38507;53.132;6.394;2023-04-25T13:47:22;8.73;;;1.05;;
52208;SDS011;38507;53.132;6.394;2023-04-25T13:49:48;12.50;;;1.63;;
52208;SDS011;38507;53.132;6.394;2023-04-25T13:52:14;14.73;;;2.03;;
52208;SDS011;38507;53.132;6.394;2023-04-25T13:54:40;9.27;;;1.77;;
52208;SDS011;38507;53.132;6.394;2023-04-25T13:57:05;8.50;;;1.48;;
52208;SDS011;38507;53.132;6.394;2023-04-25T13:59:31;6.78;;;1.00;;
52208;SDS011;38507;53.132;6.394;2023-04-25T14:01:57;9.23;;;1.60;;
52208;SDS011;38507;53.132;6.394;2023-04-25T14:04:23;10.70;;;1.88;;
52208;SDS011;38507;53.132;6.394;2023-04-25T14:06:50;8.35;;;1.45;;
52208;SDS011;38507;53.132;6.394;2023-04-25T14:09:16;7.53;;;1.30;;
52208;SDS011;38507;53.132;6.394;2023-04-25T14:11:42;4.00;;;0.93;;
52208;SDS011;38507;53.132;6.394;2023-04-25T14:14:08;11.00;;;1.60;;
52208;SDS011;38507;53.132;6.394;2023-04-25T14:16:34;8.73;;;1.15;;
52208;SDS011;38507;53.132;6.394;2023-04-25T14:19:00;11.07;;;1.35;;
52208;SDS011;38507;53.132;6.394;2023-04-25T14:21:29;11.52;;;1.50;;
52208;SDS011;38507;53.132;6.394;2023-04-25T14:23:57;7.40;;;1.30;;
52208;SDS011;38507;53.132;6.394;2023-04-25T14:26:22;11.50;;;1.83;;
52208;SDS011;38507;53.132;6.394;2023-04-25T14:28:49;8.90;;;1.33;;
52208;SDS011;38507;53.132;6.394;2023-04-25T14:31:16;8.52;;;1.42;;
52208;SDS011;38507;53.132;6.394;2023-04-25T14:33:42;14.13;;;1.80;;
52208;SDS011;38507;53.132;6.394;2023-04-25T14:36:08;15.32;;;1.80;;
52208;SDS011;38507;53.132;6.394;2023-04-25T14:38:34;10.35;;;1.77;;
52208;SDS011;38507;53.132;6.394;2023-04-25T14:41:00;9.95;;;1.30;;
52208;SDS011;38507;53.132;6.394;2023-04-25T14:43:26;10.35;;;1.60;;
52208;SDS011;38507;53.132;6.394;2023-04-25T14:45:51;5.72;;;1.63;;
52208;SDS011;38507;53.132;6.394;2023-04-25T14:48:17;6.85;;;1.45;;
52208;SDS011;38507;53.132;6.394;2023-04-25T14:50:44;9.65;;;1.27;;
52208;SDS011;38507;53.132;6.394;2023-04-25T14:53:10;5.88;;;1.40;;
52208;SDS011;38507;53.132;6.394;2023-04-25T14:55:37;7.72;;;1.63;;
52208;SDS011;38507;53.132;6.394;2023-04-25T14:58:03;10.98;;;1.35;;
52208;SDS011;38507;53.132;6.394;2023-04-25T15:00:28;5.55;;;1.13;;
52208;SDS011;38507;53.132;6.394;2023-04-25T15:02:55;9.93;;;1.45;;
52208;SDS011;38507;53.132;6.394;2023-04-25T15:05:21;12.35;;;1.98;;